sensor_id;sensor_type;location;lat;lon;timestamp;pressure;altitude;pressure_sealevel;temperature;humidity
27358;BME280;14831;50.474;7.616;2022-10-16T00:01:53;97820;;;13.6;94.8
27358;BME280;14831;50.474;7.616;2022-10-16T00:06:53;97820;;;13.6;94.8
27358;BME280;14831;50.474;7.616;2022-10-16T00:11:53;97820;;;13.6;94.8
27358;BME280;14831;50.474;7.616;2022-10-16T00:16:53;97830;;;13.5;94.8
27358;BME280;14831;50.474;7.616;2022-10-16T00:21:53;97820;;;13.5;94.8
27358;BME280;14831;50.474;7.616;2022-10-16T00:26:53;97830;;;13.5;94.7
27358;BME280;14831;50.474;7.616;2022-10-16T00:31:53;97820;;;13.5;94.7
27358;BME280;14831;50.474;7.616;2022-10-16T00:36:53;97830;;;13.5;94.7
27358;BME280;14831;50.474;7.616;2022-10-16T00:41:53;97840;;;13.5;94.6
27358;BME280;14831;50.474;7.616;2022-10-16T00:46:53;97830;;;13.5;94.4
27358;BME280;14831;50.474;7.616;2022-10-16T00:51:53;97850;;;13.5;94.3
27358;BME280;14831;50.474;7.616;2022-10-16T00:56:53;97860;;;13.5;94.3
27358;BME280;14831;50.474;7.616;2022-10-16T01:01:53;97870;;;13.4;94.0
27358;BME280;14831;50.474;7.616;2022-10-16T01:06:54;97840;;;13.4;94.0
27358;BME280;14831;50.474;7.616;2022-10-16T01:11:55;97840;;;13.3;94.0
27358;BME280;14831;50.474;7.616;2022-10-16T01:16:54;97860;;;13.3;94.1
27358;BME280;14831;50.474;7.616;2022-10-16T01:21:53;97870;;;13.3;94.1
27358;BME280;14831;50.474;7.616;2022-10-16T01:27:09;97860;;;13.2;94.1
27358;BME280;14831;50.474;7.616;2022-10-16T01:31:53;97860;;;13.2;94.1
27358;BME280;14831;50.474;7.616;2022-10-16T01:36:55;97860;;;13.2;94.1
27358;BME280;14831;50.474;7.616;2022-10-16T01:41:55;97850;;;13.2;94.1
27358;BME280;14831;50.474;7.616;2022-10-16T01:46:53;97870;;;13.1;94.0
27358;BME280;14831;50.474;7.616;2022-10-16T01:51:54;97840;;;13.1;93.8
27358;BME280;14831;50.474;7.616;2022-10-16T01:56:53;97850;;;13.1;93.9
27358;BME280;14831;50.474;7.616;2022-10-16T02:01:54;97850;;;13.1;93.7
27358;BME280;14831;50.474;7.616;2022-10-16T02:06:53;97870;;;13.1;93.8
27358;BME280;14831;50.474;7.616;2022-10-16T02:11:53;97890;;;13.1;93.7
27358;BME280;14831;50.474;7.616;2022-10-16T02:16:53;97890;;;13.0;93.7
27358;BME280;14831;50.474;7.616;2022-10-16T02:21:53;97880;;;13.0;93.7
27358;BME280;14831;50.474;7.616;2022-10-16T02:26:55;97880;;;13.0;93.7
27358;BME280;14831;50.474;7.616;2022-10-16T02:31:53;97870;;;13.0;93.6
27358;BME280;14831;50.474;7.616;2022-10-16T02:36:53;97900;;;13.1;93.5
27358;BME280;14831;50.474;7.616;2022-10-16T02:41:53;97890;;;13.1;93.3
27358;BME280;14831;50.474;7.616;2022-10-16T02:46:53;97870;;;13.0;93.2
27358;BME280;14831;50.474;7.616;2022-10-16T02:51:53;97890;;;13.0;93.0
27358;BME280;14831;50.474;7.616;2022-10-16T02:56:53;97890;;;13.0;93.0
27358;BME280;14831;50.474;7.616;2022-10-16T03:01:53;97880;;;13.0;92.6
27358;BME280;14831;50.474;7.616;2022-10-16T03:06:53;97870;;;13.0;92.7
27358;BME280;14831;50.474;7.616;2022-10-16T03:11:53;97900;;;13.1;92.8
27358;BME280;14831;50.474;7.616;2022-10-16T03:16:53;97880;;;13.0;92.8
27358;BME280;14831;50.474;7.616;2022-10-16T03:21:53;97880;;;13.0;92.8
27358;BME280;14831;50.474;7.616;2022-10-16T03:26:53;97870;;;13.0;92.8
27358;BME280;14831;50.474;7.616;2022-10-16T03:31:53;97890;;;13.0;92.7
27358;BME280;14831;50.474;7.616;2022-10-16T03:36:53;97900;;;13.0;92.9
27358;BME280;14831;50.474;7.616;2022-10-16T03:41:53;97910;;;13.0;93.0
27358;BME280;14831;50.474;7.616;2022-10-16T03:46:53;97910;;;13.0;93.2
27358;BME280;14831;50.474;7.616;2022-10-16T03:51:53;97920;;;12.9;93.1
27358;BME280;14831;50.474;7.616;2022-10-16T03:56:53;97920;;;13.0;93.3
27358;BME280;14831;50.474;7.616;2022-10-16T04:01:53;97920;;;12.9;93.4
27358;BME280;14831;50.474;7.616;2022-10-16T04:06:53;97930;;;12.9;93.3
27358;BME280;14831;50.474;7.616;2022-10-16T04:11:53;97930;;;12.9;93.3
27358;BME280;14831;50.474;7.616;2022-10-16T04:16:53;97920;;;12.9;93.3
27358;BME280;14831;50.474;7.616;2022-10-16T04:21:53;97920;;;12.8;93.2
27358;BME280;14831;50.474;7.616;2022-10-16T04:26:53;97920;;;12.8;93.2
27358;BME280;14831;50.474;7.616;2022-10-16T04:31:53;97920;;;12.8;93.3
27358;BME280;14831;50.474;7.616;2022-10-16T04:36:53;97940;;;12.8;93.1
27358;BME280;14831;50.474;7.616;2022-10-16T04:41:53;97920;;;12.8;93.2
27358;BME280;14831;50.474;7.616;2022-10-16T04:46:53;97920;;;12.7;93.2
27358;BME280;14831;50.474;7.616;2022-10-16T04:51:53;97930;;;12.6;93.1
27358;BME280;14831;50.474;7.616;2022-10-16T04:56:53;97950;;;12.6;93.0
27358;BME280;14831;50.474;7.616;2022-10-16T05:01:53;97970;;;12.6;92.9
27358;BME280;14831;50.474;7.616;2022-10-16T05:06:53;97950;;;12.6;92.5
27358;BME280;14831;50.474;7.616;2022-10-16T05:11:53;97950;;;12.6;92.6
27358;BME280;14831;50.474;7.616;2022-10-16T05:16:53;97960;;;12.5;92.3
27358;BME280;14831;50.474;7.616;2022-10-16T05:21:53;97950;;;12.5;92.3
27358;BME280;14831;50.474;7.616;2022-10-16T05:26:53;97960;;;12.5;92.2
27358;BME280;14831;50.474;7.616;2022-10-16T05:31:53;97970;;;12.5;92.2
27358;BME280;14831;50.474;7.616;2022-10-16T05:36:53;97970;;;12.5;92.0
27358;BME280;14831;50.474;7.616;2022-10-16T05:41:53;97970;;;12.5;91.8
27358;BME280;14831;50.474;7.616;2022-10-16T05:46:53;97970;;;12.5;92.0
27358;BME280;14831;50.474;7.616;2022-10-16T05:51:53;97970;;;12.5;91.9
27358;BME280;14831;50.474;7.616;2022-10-16T05:56:53;97970;;;12.5;91.9
27358;BME280;14831;50.474;7.616;2022-10-16T06:01:53;98000;;;12.5;92.0
27358;BME280;14831;50.474;7.616;2022-10-16T06:06:53;97990;;;12.6;91.9
27358;BME280;14831;50.474;7.616;2022-10-16T06:11:53;98000;;;12.6;92.0
27358;BME280;14831;50.474;7.616;2022-10-16T06:16:53;98000;;;12.6;92.0
27358;BME280;14831;50.474;7.616;2022-10-16T06:21:53;98000;;;12.6;92.0
27358;BME280;14831;50.474;7.616;2022-10-16T06:26:53;98000;;;12.6;92.1
27358;BME280;14831;50.474;7.616;2022-10-16T06:31:53;97990;;;12.6;92.1
27358;BME280;14831;50.474;7.616;2022-10-16T06:36:53;98000;;;12.6;92.1
27358;BME280;14831;50.474;7.616;2022-10-16T06:41:53;98010;;;12.7;92.0
27358;BME280;14831;50.474;7.616;2022-10-16T06:46:53;98020;;;12.8;91.9
27358;BME280;14831;50.474;7.616;2022-10-16T06:51:53;98030;;;12.9;91.4
27358;BME280;14831;50.474;7.616;2022-10-16T06:56:53;98050;;;12.9;91.1
27358;BME280;14831;50.474;7.616;2022-10-16T07:01:53;98060;;;12.9;91.0
27358;BME280;14831;50.474;7.616;2022-10-16T07:06:53;98060;;;12.9;90.9
27358;BME280;14831;50.474;7.616;2022-10-16T07:11:53;98070;;;13.0;90.9
27358;BME280;14831;50.474;7.616;2022-10-16T07:16:53;98080;;;13.0;90.9
27358;BME280;14831;50.474;7.616;2022-10-16T07:21:53;98060;;;13.0;90.8
27358;BME280;14831;50.474;7.616;2022-10-16T07:26:53;98080;;;13.1;90.9
27358;BME280;14831;50.474;7.616;2022-10-16T07:31:53;98090;;;13.1;90.8
27358;BME280;14831;50.474;7.616;2022-10-16T07:36:53;98090;;;13.1;90.8
27358;BME280;14831;50.474;7.616;2022-10-16T07:41:53;98090;;;13.2;90.9
27358;BME280;14831;50.474;7.616;2022-10-16T07:46:53;98130;;;13.2;91.0
27358;BME280;14831;50.474;7.616;2022-10-16T07:51:53;98130;;;13.3;90.9
27358;BME280;14831;50.474;7.616;2022-10-16T07:56:53;98150;;;13.5;90.6
27358;BME280;14831;50.474;7.616;2022-10-16T08:01:53;98160;;;13.5;90.2
27358;BME280;14831;50.474;7.616;2022-10-16T08:06:53;98180;;;13.7;89.8
27358;BME280;14831;50.474;7.616;2022-10-16T08:11:53;98160;;;13.8;89.5
27358;BME280;14831;50.474;7.616;2022-10-16T08:16:53;98170;;;13.8;89.3
27358;BME280;14831;50.474;7.616;2022-10-16T08:21:53;98180;;;14.1;88.8
27358;BME280;14831;50.474;7.616;2022-10-16T08:26:53;98160;;;14.4;87.9
27358;BME280;14831;50.474;7.616;2022-10-16T08:31:53;98190;;;14.5;85.5
27358;BME280;14831;50.474;7.616;2022-10-16T08:36:53;98210;;;14.5;87.0
27358;BME280;14831;50.474;7.616;2022-10-16T08:42:11;98220;;;14.2;87.6
27358;BME280;14831;50.474;7.616;2022-10-16T08:46:54;98220;;;14.1;87.7
27358;BME280;14831;50.474;7.616;2022-10-16T08:51:53;98230;;;14.2;87.9
27358;BME280;14831;50.474;7.616;2022-10-16T08:56:53;98230;;;14.4;87.4
27358;BME280;14831;50.474;7.616;2022-10-16T09:01:53;98230;;;14.5;87.1
27358;BME280;14831;50.474;7.616;2022-10-16T09:06:54;98240;;;14.5;87.0
27358;BME280;14831;50.474;7.616;2022-10-16T09:11:55;98240;;;14.6;86.9
27358;BME280;14831;50.474;7.616;2022-10-16T09:16:53;98260;;;14.6;87.1
27358;BME280;14831;50.474;7.616;2022-10-16T09:21:53;98260;;;14.7;87.3
27358;BME280;14831;50.474;7.616;2022-10-16T09:26:53;98270;;;14.7;85.8
27358;BME280;14831;50.474;7.616;2022-10-16T09:31:53;98270;;;14.7;85.9
27358;BME280;14831;50.474;7.616;2022-10-16T09:36:53;98270;;;14.7;85.6
27358;BME280;14831;50.474;7.616;2022-10-16T09:41:53;98260;;;14.7;85.2
27358;BME280;14831;50.474;7.616;2022-10-16T09:47:00;98260;;;14.7;84.6
27358;BME280;14831;50.474;7.616;2022-10-16T09:52:02;98270;;;15.0;84.6
27358;BME280;14831;50.474;7.616;2022-10-16T09:57:03;98270;;;15.3;83.9
27358;BME280;14831;50.474;7.616;2022-10-16T10:01:53;98290;;;15.4;83.9
27358;BME280;14831;50.474;7.616;2022-10-16T10:06:53;98260;;;15.7;82.9
27358;BME280;14831;50.474;7.616;2022-10-16T10:11:54;98280;;;15.7;82.1
27358;BME280;14831;50.474;7.616;2022-10-16T10:17:02;98270;;;15.6;81.6
27358;BME280;14831;50.474;7.616;2022-10-16T10:21:53;98230;;;15.5;82.6
27358;BME280;14831;50.474;7.616;2022-10-16T10:26:54;98240;;;16.0;82.5
27358;BME280;14831;50.474;7.616;2022-10-16T10:31:54;98260;;;16.1;81.3
27358;BME280;14831;50.474;7.616;2022-10-16T10:36:54;98270;;;16.1;80.8
27358;BME280;14831;50.474;7.616;2022-10-16T10:41:57;98280;;;16.1;82.0
27358;BME280;14831;50.474;7.616;2022-10-16T10:46:55;98250;;;16.2;82.1
27358;BME280;14831;50.474;7.616;2022-10-16T10:51:55;98240;;;16.5;80.7
27358;BME280;14831;50.474;7.616;2022-10-16T10:56:56;98270;;;16.7;78.4
27358;BME280;14831;50.474;7.616;2022-10-16T11:01:54;98240;;;16.6;78.7
27358;BME280;14831;50.474;7.616;2022-10-16T11:06:55;98240;;;16.7;79.0
27358;BME280;14831;50.474;7.616;2022-10-16T11:11:54;98250;;;17.0;78.5
27358;BME280;14831;50.474;7.616;2022-10-16T11:16:54;98260;;;17.3;76.2
27358;BME280;14831;50.474;7.616;2022-10-16T11:21:54;98310;;;17.3;75.5
27358;BME280;14831;50.474;7.616;2022-10-16T11:26:53;98320;;;17.1;76.5
27358;BME280;14831;50.474;7.616;2022-10-16T11:31:55;98270;;;17.1;75.6
27358;BME280;14831;50.474;7.616;2022-10-16T11:36:53;98260;;;17.3;76.1
27358;BME280;14831;50.474;7.616;2022-10-16T11:41:53;98270;;;17.7;73.8
27358;BME280;14831;50.474;7.616;2022-10-16T11:46:57;98270;;;17.9;72.7
27358;BME280;14831;50.474;7.616;2022-10-16T11:51:55;98270;;;17.9;73.3
27358;BME280;14831;50.474;7.616;2022-10-16T11:56:53;98300;;;18.1;73.1
27358;BME280;14831;50.474;7.616;2022-10-16T12:01:53;98280;;;17.9;70.9
27358;BME280;14831;50.474;7.616;2022-10-16T12:06:55;98320;;;17.9;69.5
27358;BME280;14831;50.474;7.616;2022-10-16T12:11:53;98320;;;17.6;71.2
27358;BME280;14831;50.474;7.616;2022-10-16T12:16:54;98290;;;17.8;71.8
27358;BME280;14831;50.474;7.616;2022-10-16T12:21:54;98300;;;17.9;73.1
27358;BME280;14831;50.474;7.616;2022-10-16T12:26:53;98340;;;17.8;70.8
27358;BME280;14831;50.474;7.616;2022-10-16T12:31:53;98330;;;17.5;72.8
27358;BME280;14831;50.474;7.616;2022-10-16T12:36:53;98330;;;17.4;73.3
27358;BME280;14831;50.474;7.616;2022-10-16T12:42:01;98280;;;17.7;74.6
27358;BME280;14831;50.474;7.616;2022-10-16T12:46:53;98290;;;18.2;71.0
27358;BME280;14831;50.474;7.616;2022-10-16T12:51:53;98320;;;18.4;70.8
27358;BME280;14831;50.474;7.616;2022-10-16T12:56:57;98340;;;18.1;71.2
27358;BME280;14831;50.474;7.616;2022-10-16T13:01:58;98350;;;17.9;71.0
27358;BME280;14831;50.474;7.616;2022-10-16T13:06:54;98360;;;17.8;72.1
27358;BME280;14831;50.474;7.616;2022-10-16T13:11:57;98360;;;17.6;72.6
27358;BME280;14831;50.474;7.616;2022-10-16T13:16:54;98350;;;17.6;74.2
27358;BME280;14831;50.474;7.616;2022-10-16T13:21:56;98350;;;17.6;74.8
27358;BME280;14831;50.474;7.616;2022-10-16T13:26:54;98360;;;17.7;74.8
27358;BME280;14831;50.474;7.616;2022-10-16T13:31:53;98350;;;17.6;74.0
27358;BME280;14831;50.474;7.616;2022-10-16T13:36:53;98350;;;17.6;74.8
27358;BME280;14831;50.474;7.616;2022-10-16T13:42:01;98340;;;17.6;74.9
27358;BME280;14831;50.474;7.616;2022-10-16T13:46:58;98340;;;17.7;75.4
27358;BME280;14831;50.474;7.616;2022-10-16T13:51:53;98320;;;17.7;75.9
27358;BME280;14831;50.474;7.616;2022-10-16T13:56:53;98330;;;17.5;75.9
27358;BME280;14831;50.474;7.616;2022-10-16T14:01:53;98340;;;17.2;77.7
27358;BME280;14831;50.474;7.616;2022-10-16T14:06:53;98330;;;17.2;77.6
27358;BME280;14831;50.474;7.616;2022-10-16T14:11:53;98340;;;17.3;78.1
27358;BME280;14831;50.474;7.616;2022-10-16T14:16:53;98330;;;17.3;77.9
27358;BME280;14831;50.474;7.616;2022-10-16T14:21:53;98330;;;17.4;77.5
27358;BME280;14831;50.474;7.616;2022-10-16T14:26:53;98330;;;17.5;77.0
27358;BME280;14831;50.474;7.616;2022-10-16T14:31:54;98330;;;17.5;76.9
27358;BME280;14831;50.474;7.616;2022-10-16T14:36:53;98320;;;17.5;77.1
27358;BME280;14831;50.474;7.616;2022-10-16T14:41:54;98330;;;17.5;76.5
27358;BME280;14831;50.474;7.616;2022-10-16T14:46:53;98330;;;17.5;77.7
27358;BME280;14831;50.474;7.616;2022-10-16T14:51:53;98330;;;17.3;77.7
27358;BME280;14831;50.474;7.616;2022-10-16T14:56:53;98330;;;17.2;78.1
27358;BME280;14831;50.474;7.616;2022-10-16T15:01:53;98330;;;17.2;78.2
27358;BME280;14831;50.474;7.616;2022-10-16T15:06:53;98320;;;17.1;79.2
27358;BME280;14831;50.474;7.616;2022-10-16T15:11:53;98330;;;17.1;79.5
27358;BME280;14831;50.474;7.616;2022-10-16T15:16:53;98330;;;17.0;80.0
27358;BME280;14831;50.474;7.616;2022-10-16T15:21:53;98330;;;17.0;79.8
27358;BME280;14831;50.474;7.616;2022-10-16T15:26:53;98320;;;16.9;79.5
27358;BME280;14831;50.474;7.616;2022-10-16T15:31:53;98330;;;16.8;79.9
27358;BME280;14831;50.474;7.616;2022-10-16T15:36:53;98320;;;16.7;80.6
27358;BME280;14831;50.474;7.616;2022-10-16T15:41:53;98330;;;16.7;81.1
27358;BME280;14831;50.474;7.616;2022-10-16T15:46:54;98330;;;16.6;81.8
27358;BME280;14831;50.474;7.616;2022-10-16T15:51:53;98320;;;16.4;82.4
27358;BME280;14831;50.474;7.616;2022-10-16T15:56:53;98330;;;16.3;83.0
27358;BME280;14831;50.474;7.616;2022-10-16T16:01:53;98330;;;16.2;83.4
27358;BME280;14831;50.474;7.616;2022-10-16T16:06:53;98330;;;16.1;83.9
27358;BME280;14831;50.474;7.616;2022-10-16T16:11:53;98330;;;16.1;83.8
27358;BME280;14831;50.474;7.616;2022-10-16T16:16:53;98330;;;16.0;83.9
27358;BME280;14831;50.474;7.616;2022-10-16T16:21:53;98330;;;16.0;83.7
27358;BME280;14831;50.474;7.616;2022-10-16T16:26:53;98330;;;16.0;83.9
27358;BME280;14831;50.474;7.616;2022-10-16T16:31:53;98330;;;15.9;84.4
27358;BME280;14831;50.474;7.616;2022-10-16T16:36:53;98340;;;15.9;84.7
27358;BME280;14831;50.474;7.616;2022-10-16T16:41:54;98330;;;15.8;85.2
27358;BME280;14831;50.474;7.616;2022-10-16T16:46:53;98330;;;15.8;86.0
27358;BME280;14831;50.474;7.616;2022-10-16T16:51:53;98350;;;15.9;86.4
27358;BME280;14831;50.474;7.616;2022-10-16T16:56:53;98350;;;15.9;86.7
27358;BME280;14831;50.474;7.616;2022-10-16T17:01:53;98350;;;16.0;87.0
27358;BME280;14831;50.474;7.616;2022-10-16T17:06:53;98360;;;16.0;87.6
27358;BME280;14831;50.474;7.616;2022-10-16T17:11:53;98360;;;16.1;88.0
27358;BME280;14831;50.474;7.616;2022-10-16T17:16:53;98360;;;16.2;87.9
27358;BME280;14831;50.474;7.616;2022-10-16T17:21:53;98360;;;16.2;87.9
27358;BME280;14831;50.474;7.616;2022-10-16T17:26:53;98360;;;16.2;87.8
27358;BME280;14831;50.474;7.616;2022-10-16T17:31:54;98370;;;16.1;88.1
27358;BME280;14831;50.474;7.616;2022-10-16T17:36:53;98360;;;16.0;88.5
27358;BME280;14831;50.474;7.616;2022-10-16T17:41:53;98370;;;16.0;88.6
27358;BME280;14831;50.474;7.616;2022-10-16T17:46:53;98380;;;16.1;88.7
27358;BME280;14831;50.474;7.616;2022-10-16T17:51:53;98390;;;16.1;88.6
27358;BME280;14831;50.474;7.616;2022-10-16T17:56:53;98390;;;16.1;88.5
27358;BME280;14831;50.474;7.616;2022-10-16T18:01:53;98400;;;16.1;88.5
27358;BME280;14831;50.474;7.616;2022-10-16T18:06:53;98400;;;16.0;88.7
27358;BME280;14831;50.474;7.616;2022-10-16T18:11:53;98390;;;15.9;89.1
27358;BME280;14831;50.474;7.616;2022-10-16T18:16:53;98390;;;15.8;89.7
27358;BME280;14831;50.474;7.616;2022-10-16T18:21:53;98390;;;15.8;89.8
27358;BME280;14831;50.474;7.616;2022-10-16T18:26:54;98410;;;15.7;90.2
27358;BME280;14831;50.474;7.616;2022-10-16T18:31:53;98400;;;15.7;90.6
27358;BME280;14831;50.474;7.616;2022-10-16T18:36:53;98390;;;15.8;90.6
27358;BME280;14831;50.474;7.616;2022-10-16T18:41:53;98390;;;15.8;90.6
27358;BME280;14831;50.474;7.616;2022-10-16T18:46:53;98400;;;15.8;90.9
27358;BME280;14831;50.474;7.616;2022-10-16T18:51:53;98410;;;15.8;90.9
27358;BME280;14831;50.474;7.616;2022-10-16T18:56:53;98400;;;15.8;91.1
27358;BME280;14831;50.474;7.616;2022-10-16T19:01:53;98400;;;15.8;91.3
27358;BME280;14831;50.474;7.616;2022-10-16T19:06:53;98390;;;15.9;91.7
27358;BME280;14831;50.474;7.616;2022-10-16T19:11:53;98410;;;15.9;91.4
27358;BME280;14831;50.474;7.616;2022-10-16T19:16:53;98400;;;16.0;91.4
27358;BME280;14831;50.474;7.616;2022-10-16T19:21:53;98400;;;16.0;91.1
27358;BME280;14831;50.474;7.616;2022-10-16T19:26:53;98400;;;16.1;90.9
27358;BME280;14831;50.474;7.616;2022-10-16T19:31:53;98420;;;16.0;90.8
27358;BME280;14831;50.474;7.616;2022-10-16T19:36:53;98420;;;16.1;90.9
27358;BME280;14831;50.474;7.616;2022-10-16T19:41:53;98430;;;16.1;90.7
27358;BME280;14831;50.474;7.616;2022-10-16T19:46:53;98420;;;16.2;90.2
27358;BME280;14831;50.474;7.616;2022-10-16T19:51:53;98420;;;16.2;90.1
27358;BME280;14831;50.474;7.616;2022-10-16T19:56:53;98420;;;16.2;90.2
27358;BME280;14831;50.474;7.616;2022-10-16T20:01:53;98420;;;16.2;90.2
27358;BME280;14831;50.474;7.616;2022-10-16T20:06:53;98420;;;16.2;90.2
27358;BME280;14831;50.474;7.616;2022-10-16T20:11:53;98430;;;16.1;90.4
27358;BME280;14831;50.474;7.616;2022-10-16T20:16:53;98430;;;16.1;90.5
27358;BME280;14831;50.474;7.616;2022-10-16T20:21:53;98430;;;16.1;90.4
27358;BME280;14831;50.474;7.616;2022-10-16T20:26:53;98430;;;16.0;90.3
27358;BME280;14831;50.474;7.616;2022-10-16T20:31:53;98440;;;16.0;90.5
27358;BME280;14831;50.474;7.616;2022-10-16T20:36:53;98440;;;16.0;90.5
27358;BME280;14831;50.474;7.616;2022-10-16T20:41:53;98440;;;15.9;90.5
27358;BME280;14831;50.474;7.616;2022-10-16T20:46:53;98440;;;15.9;90.5
27358;BME280;14831;50.474;7.616;2022-10-16T20:51:53;98440;;;15.8;90.7
27358;BME280;14831;50.474;7.616;2022-10-16T20:56:53;98450;;;15.8;90.8
27358;BME280;14831;50.474;7.616;2022-10-16T21:01:53;98450;;;15.8;90.7
27358;BME280;14831;50.474;7.616;2022-10-16T21:06:53;98440;;;15.7;91.0
27358;BME280;14831;50.474;7.616;2022-10-16T21:11:53;98450;;;15.6;91.0
27358;BME280;14831;50.474;7.616;2022-10-16T21:16:53;98450;;;15.6;90.9
27358;BME280;14831;50.474;7.616;2022-10-16T21:21:53;98450;;;15.5;90.8
27358;BME280;14831;50.474;7.616;2022-10-16T21:26:53;98460;;;15.5;91.1
27358;BME280;14831;50.474;7.616;2022-10-16T21:31:53;98450;;;15.4;91.2
27358;BME280;14831;50.474;7.616;2022-10-16T21:36:53;98450;;;15.4;91.1
27358;BME280;14831;50.474;7.616;2022-10-16T21:41:53;98440;;;15.4;91.0
27358;BME280;14831;50.474;7.616;2022-10-16T21:46:53;98440;;;15.3;91.0
27358;BME280;14831;50.474;7.616;2022-10-16T21:51:53;98440;;;15.2;91.1
27358;BME280;14831;50.474;7.616;2022-10-16T21:56:53;98450;;;15.3;91.1
27358;BME280;14831;50.474;7.616;2022-10-16T22:01:53;98440;;;15.2;91.0
27358;BME280;14831;50.474;7.616;2022-10-16T22:06:53;98430;;;15.2;90.6
27358;BME280;14831;50.474;7.616;2022-10-16T22:11:53;98440;;;15.3;90.3
27358;BME280;14831;50.474;7.616;2022-10-16T22:16:53;98440;;;15.2;90.2
27358;BME280;14831;50.474;7.616;2022-10-16T22:21:53;98450;;;15.3;90.1
27358;BME280;14831;50.474;7.616;2022-10-16T22:26:53;98450;;;15.2;89.7
27358;BME280;14831;50.474;7.616;2022-10-16T22:31:53;98460;;;15.3;89.5
27358;BME280;14831;50.474;7.616;2022-10-16T22:36:53;98460;;;15.3;89.2
27358;BME280;14831;50.474;7.616;2022-10-16T22:41:53;98460;;;15.2;89.1
27358;BME280;14831;50.474;7.616;2022-10-16T22:46:53;98470;;;15.3;89.0
27358;BME280;14831;50.474;7.616;2022-10-16T22:51:53;98460;;;15.3;88.8
27358;BME280;14831;50.474;7.616;2022-10-16T22:56:53;98470;;;15.5;88.4
27358;BME280;14831;50.474;7.616;2022-10-16T23:01:53;98480;;;15.5;88.0
27358;BME280;14831;50.474;7.616;2022-10-16T23:06:53;98480;;;15.6;87.7
27358;BME280;14831;50.474;7.616;2022-10-16T23:11:53;98480;;;15.6;87.2
27358;BME280;14831;50.474;7.616;2022-10-16T23:16:53;98490;;;15.6;86.9
27358;BME280;14831;50.474;7.616;2022-10-16T23:21:53;98480;;;15.6;86.7
27358;BME280;14831;50.474;7.616;2022-10-16T23:26:53;98480;;;15.7;86.4
27358;BME280;14831;50.474;7.616;2022-10-16T23:31:53;98480;;;15.7;86.2
27358;BME280;14831;50.474;7.616;2022-10-16T23:36:53;98480;;;15.7;85.9
27358;BME280;14831;50.474;7.616;2022-10-16T23:41:53;98500;;;15.7;85.9
27358;BME280;14831;50.474;7.616;2022-10-16T23:46:53;98490;;;15.7;86.3
27358;BME280;14831;50.474;7.616;2022-10-16T23:51:53;98480;;;15.6;86.0
27358;BME280;14831;50.474;7.616;2022-10-16T23:56:53;98490;;;15.6;85.7
